sensor_id;sensor_type;location;lat;lon;timestamp;pressure;altitude;pressure_sealevel;temperature;humidity
35806;BME280;21925;44.608;11.580;2023-05-22T00:02:12;101281.25;;;19.56;100.00
35806;BME280;21925;44.608;11.580;2023-05-22T00:04:38;101307.09;;;19.53;100.00
35806;BME280;21925;44.608;11.580;2023-05-22T00:07:04;101299.91;;;19.41;100.00
35806;BME280;21925;44.608;11.580;2023-05-22T00:09:30;101305.28;;;19.00;100.00
35806;BME280;21925;44.608;11.580;2023-05-22T00:11:56;101302.59;;;18.49;100.00
35806;BME280;21925;44.608;11.580;2023-05-22T00:14:21;101323.63;;;18.50;100.00
35806;BME280;21925;44.608;11.580;2023-05-22T00:16:47;101309.94;;;18.21;100.00
35806;BME280;21925;44.608;11.580;2023-05-22T00:19:13;101310.88;;;18.42;100.00
35806;BME280;21925;44.608;11.580;2023-05-22T00:21:41;101295.91;;;18.57;100.00
35806;BME280;21925;44.608;11.580;2023-05-22T00:24:07;101292.22;;;18.40;100.00
35806;BME280;21925;44.608;11.580;2023-05-22T00:26:33;101308.22;;;18.56;100.00
35806;BME280;21925;44.608;11.580;2023-05-22T00:28:59;101309.72;;;18.50;100.00
35806;BME280;21925;44.608;11.580;2023-05-22T00:31:24;101309.44;;;18.62;100.00
35806;BME280;21925;44.608;11.580;2023-05-22T00:33:50;101305.81;;;18.58;100.00
35806;BME280;21925;44.608;11.580;2023-05-22T00:36:15;101296.75;;;18.65;100.00
35806;BME280;21925;44.608;11.580;2023-05-22T00:38:42;101316.16;;;18.61;100.00
35806;BME280;21925;44.608;11.580;2023-05-22T00:41:08;101277.97;;;18.44;100.00
35806;BME280;21925;44.608;11.580;2023-05-22T00:43:34;101283.34;;;18.81;100.00
35806;BME280;21925;44.608;11.580;2023-05-22T00:45:59;101296.47;;;18.84;100.00
35806;BME280;21925;44.608;11.580;2023-05-22T00:48:25;101308.31;;;18.74;100.00
35806;BME280;21925;44.608;11.580;2023-05-22T00:50:54;101313.94;;;18.91;100.00
35806;BME280;21925;44.608;11.580;2023-05-22T00:53:23;101301.00;;;18.48;100.00
35806;BME280;21925;44.608;11.580;2023-05-22T00:55:49;101300.28;;;18.62;100.00
35806;BME280;21925;44.608;11.580;2023-05-22T00:58:16;101305.66;;;18.98;100.00
35806;BME280;21925;44.608;11.580;2023-05-22T01:00:42;101312.13;;;19.16;100.00
35806;BME280;21925;44.608;11.580;2023-05-22T01:03:09;101301.31;;;19.01;100.00
35806;BME280;21925;44.608;11.580;2023-05-22T01:05:35;101301.41;;;19.15;100.00
35806;BME280;21925;44.608;11.580;2023-05-22T01:08:03;101312.97;;;19.34;100.00
35806;BME280;21925;44.608;11.580;2023-05-22T01:10:29;101315.56;;;18.96;100.00
35806;BME280;21925;44.608;11.580;2023-05-22T01:26:20;101319.25;;;17.63;100.00
35806;BME280;21925;44.608;11.580;2023-05-22T01:31:38;101317.78;;;17.72;100.00
35806;BME280;21925;44.608;11.580;2023-05-22T01:34:06;101317.88;;;17.83;100.00
35806;BME280;21925;44.608;11.580;2023-05-22T01:36:35;101303.22;;;17.86;100.00
35806;BME280;21925;44.608;11.580;2023-05-22T01:39:02;101220.88;;;17.50;100.00
35806;BME280;21925;44.608;11.580;2023-05-22T01:41:31;101315.16;;;18.33;100.00
35806;BME280;21925;44.608;11.580;2023-05-22T01:43:58;101303.41;;;18.53;100.00
35806;BME280;21925;44.608;11.580;2023-05-22T01:46:28;101314.88;;;18.45;100.00
35806;BME280;21925;44.608;11.580;2023-05-22T01:48:54;101299.75;;;17.96;100.00
35806;BME280;21925;44.608;11.580;2023-05-22T01:54:22;101322.84;;;18.07;100.00
35806;BME280;21925;44.608;11.580;2023-05-22T01:57:06;101312.66;;;17.78;100.00
35806;BME280;21925;44.608;11.580;2023-05-22T01:59:43;101314.53;;;17.67;100.00
35806;BME280;21925;44.608;11.580;2023-05-22T02:02:12;101312.84;;;17.56;100.00
35806;BME280;21925;44.608;11.580;2023-05-22T02:04:42;101316.19;;;17.71;100.00
35806;BME280;21925;44.608;11.580;2023-05-22T02:07:11;101303.63;;;17.48;100.00
35806;BME280;21925;44.608;11.580;2023-05-22T02:09:39;101321.41;;;17.80;100.00
35806;BME280;21925;44.608;11.580;2023-05-22T02:12:05;101308.19;;;18.10;100.00
35806;BME280;21925;44.608;11.580;2023-05-22T02:14:32;101323.97;;;18.42;100.00
35806;BME280;21925;44.608;11.580;2023-05-22T02:17:00;101316.38;;;17.92;100.00
35806;BME280;21925;44.608;11.580;2023-05-22T02:19:26;101294.63;;;17.58;100.00
35806;BME280;21925;44.608;11.580;2023-05-22T02:21:52;101295.00;;;17.93;100.00
35806;BME280;21925;44.608;11.580;2023-05-22T02:24:18;101313.19;;;17.94;100.00
35806;BME280;21925;44.608;11.580;2023-05-22T02:26:44;101324.66;;;17.89;100.00
35806;BME280;21925;44.608;11.580;2023-05-22T02:29:11;101302.59;;;17.63;100.00
35806;BME280;21925;44.608;11.580;2023-05-22T02:31:37;101303.56;;;17.41;100.00
35806;BME280;21925;44.608;11.580;2023-05-22T02:34:03;101312.09;;;17.62;100.00
35806;BME280;21925;44.608;11.580;2023-05-22T02:36:31;101302.81;;;17.84;100.00
35806;BME280;21925;44.608;11.580;2023-05-22T02:39:00;101318.28;;;17.85;100.00
35806;BME280;21925;44.608;11.580;2023-05-22T02:41:26;101304.44;;;17.85;100.00
35806;BME280;21925;44.608;11.580;2023-05-22T02:43:52;101316.41;;;17.56;100.00
35806;BME280;21925;44.608;11.580;2023-05-22T02:46:17;101314.88;;;17.62;100.00
35806;BME280;21925;44.608;11.580;2023-05-22T02:48:43;101307.03;;;17.71;100.00
35806;BME280;21925;44.608;11.580;2023-05-22T02:51:09;101308.56;;;18.05;100.00
35806;BME280;21925;44.608;11.580;2023-05-22T02:53:35;101319.22;;;18.03;100.00
35806;BME280;21925;44.608;11.580;2023-05-22T02:56:08;101311.69;;;18.00;100.00
35806;BME280;21925;44.608;11.580;2023-05-22T02:58:37;101306.50;;;17.98;100.00
35806;BME280;21925;44.608;11.580;2023-05-22T03:01:04;101290.25;;;17.57;100.00
35806;BME280;21925;44.608;11.580;2023-05-22T03:03:32;101296.00;;;17.38;100.00
35806;BME280;21925;44.608;11.580;2023-05-22T03:05:59;101294.50;;;17.44;100.00
35806;BME280;21925;44.608;11.580;2023-05-22T03:08:26;101309.63;;;17.90;100.00
35806;BME280;21925;44.608;11.580;2023-05-22T03:10:56;101296.72;;;17.68;100.00
35806;BME280;21925;44.608;11.580;2023-05-22T03:13:22;101321.06;;;17.49;100.00
35806;BME280;21925;44.608;11.580;2023-05-22T03:15:48;101318.16;;;17.38;100.00
35806;BME280;21925;44.608;11.580;2023-05-22T03:18:14;101311.19;;;17.51;100.00
35806;BME280;21925;44.608;11.580;2023-05-22T03:20:41;101285.91;;;17.23;100.00
35806;BME280;21925;44.608;11.580;2023-05-22T03:23:07;101324.22;;;17.47;100.00
35806;BME280;21925;44.608;11.580;2023-05-22T03:25:33;101312.88;;;17.59;100.00
35806;BME280;21925;44.608;11.580;2023-05-22T03:27:59;101294.63;;;17.98;100.00
35806;BME280;21925;44.608;11.580;2023-05-22T03:30:28;101309.94;;;17.45;100.00
35806;BME280;21925;44.608;11.580;2023-05-22T03:33:16;101306.63;;;17.69;100.00
35806;BME280;21925;44.608;11.580;2023-05-22T03:35:42;101312.53;;;18.07;100.00
35806;BME280;21925;44.608;11.580;2023-05-22T03:38:09;101312.16;;;17.69;100.00
35806;BME280;21925;44.608;11.580;2023-05-22T03:40:35;101309.97;;;17.85;100.00
35806;BME280;21925;44.608;11.580;2023-05-22T03:43:01;101295.63;;;17.76;100.00
35806;BME280;21925;44.608;11.580;2023-05-22T03:45:27;101315.53;;;17.85;100.00
35806;BME280;21925;44.608;11.580;2023-05-22T03:47:52;101282.13;;;17.78;100.00
35806;BME280;21925;44.608;11.580;2023-05-22T03:50:18;101307.25;;;17.52;100.00
35806;BME280;21925;44.608;11.580;2023-05-22T03:52:44;101310.59;;;17.68;100.00
35806;BME280;21925;44.608;11.580;2023-05-22T03:55:09;101326.13;;;17.40;100.00
35806;BME280;21925;44.608;11.580;2023-05-22T03:57:35;101322.44;;;17.65;100.00
35806;BME280;21925;44.608;11.580;2023-05-22T04:00:00;101318.63;;;17.80;100.00
35806;BME280;21925;44.608;11.580;2023-05-22T04:02:38;101310.78;;;17.89;100.00
35806;BME280;21925;44.608;11.580;2023-05-22T04:05:07;101320.50;;;18.09;100.00
35806;BME280;21925;44.608;11.580;2023-05-22T04:07:34;101301.25;;;18.26;100.00
35806;BME280;21925;44.608;11.580;2023-05-22T04:10:04;101322.38;;;18.41;100.00
35806;BME280;21925;44.608;11.580;2023-05-22T04:12:30;101327.03;;;18.30;100.00
35806;BME280;21925;44.608;11.580;2023-05-22T04:14:56;101327.59;;;18.06;100.00
35806;BME280;21925;44.608;11.580;2023-05-22T04:17:22;101330.56;;;18.24;100.00
35806;BME280;21925;44.608;11.580;2023-05-22T04:19:47;101331.63;;;18.12;100.00
35806;BME280;21925;44.608;11.580;2023-05-22T04:22:13;101323.00;;;18.21;100.00
35806;BME280;21925;44.608;11.580;2023-05-22T04:24:39;101326.91;;;18.20;100.00
35806;BME280;21925;44.608;11.580;2023-05-22T04:27:05;101325.78;;;18.21;100.00
35806;BME280;21925;44.608;11.580;2023-05-22T04:29:32;101343.41;;;17.99;100.00
35806;BME280;21925;44.608;11.580;2023-05-22T04:32:00;101343.91;;;17.71;100.00
35806;BME280;21925;44.608;11.580;2023-05-22T04:34:26;101341.47;;;17.66;100.00
35806;BME280;21925;44.608;11.580;2023-05-22T04:36:52;101342.53;;;17.55;100.00
35806;BME280;21925;44.608;11.580;2023-05-22T04:39:18;101340.94;;;17.94;100.00
35806;BME280;21925;44.608;11.580;2023-05-22T04:41:44;101346.72;;;18.15;100.00
35806;BME280;21925;44.608;11.580;2023-05-22T04:44:11;101346.41;;;18.23;100.00
35806;BME280;21925;44.608;11.580;2023-05-22T04:46:36;101351.75;;;18.02;100.00
35806;BME280;21925;44.608;11.580;2023-05-22T04:49:02;101352.25;;;18.15;100.00
35806;BME280;21925;44.608;11.580;2023-05-22T04:51:29;101341.34;;;18.36;100.00
35806;BME280;21925;44.608;11.580;2023-05-22T04:53:59;101347.41;;;18.48;100.00
35806;BME280;21925;44.608;11.580;2023-05-22T04:56:27;101355.38;;;18.49;100.00
35806;BME280;21925;44.608;11.580;2023-05-22T04:58:54;101361.34;;;18.55;100.00
35806;BME280;21925;44.608;11.580;2023-05-22T05:01:20;101359.84;;;18.64;100.00
35806;BME280;21925;44.608;11.580;2023-05-22T05:03:45;101343.03;;;18.47;100.00
35806;BME280;21925;44.608;11.580;2023-05-22T05:06:11;101358.44;;;18.95;100.00
35806;BME280;21925;44.608;11.580;2023-05-22T05:08:37;101343.19;;;18.68;100.00
35806;BME280;21925;44.608;11.580;2023-05-22T05:11:03;101371.47;;;18.80;100.00
35806;BME280;21925;44.608;11.580;2023-05-22T05:13:28;101366.34;;;18.86;100.00
35806;BME280;21925;44.608;11.580;2023-05-22T05:15:54;101364.06;;;19.05;100.00
35806;BME280;21925;44.608;11.580;2023-05-22T05:18:20;101350.97;;;19.09;100.00
35806;BME280;21925;44.608;11.580;2023-05-22T05:20:46;101355.06;;;19.22;100.00
35806;BME280;21925;44.608;11.580;2023-05-22T05:23:12;101363.03;;;19.30;100.00
35806;BME280;21925;44.608;11.580;2023-05-22T05:25:38;101369.78;;;19.29;100.00
35806;BME280;21925;44.608;11.580;2023-05-22T05:28:04;101362.72;;;19.53;100.00
35806;BME280;21925;44.608;11.580;2023-05-22T05:30:39;101375.81;;;19.49;100.00
35806;BME280;21925;44.608;11.580;2023-05-22T05:33:23;101368.28;;;19.53;100.00
35806;BME280;21925;44.608;11.580;2023-05-22T05:36:18;101375.50;;;19.68;100.00
35806;BME280;21925;44.608;11.580;2023-05-22T05:38:45;101373.91;;;19.74;100.00
35806;BME280;21925;44.608;11.580;2023-05-22T05:41:11;101365.59;;;19.91;100.00
35806;BME280;21925;44.608;11.580;2023-05-22T05:43:37;101366.00;;;19.93;100.00
35806;BME280;21925;44.608;11.580;2023-05-22T05:46:05;101360.47;;;20.03;100.00
35806;BME280;21925;44.608;11.580;2023-05-22T05:48:32;101371.66;;;20.07;100.00
35806;BME280;21925;44.608;11.580;2023-05-22T05:50:57;101366.88;;;20.28;100.00
35806;BME280;21925;44.608;11.580;2023-05-22T05:53:24;101382.78;;;20.45;100.00
35806;BME280;21925;44.608;11.580;2023-05-22T05:55:56;101371.63;;;20.56;100.00
35806;BME280;21925;44.608;11.580;2023-05-22T05:58:22;101353.72;;;20.53;100.00
35806;BME280;21925;44.608;11.580;2023-05-22T06:01:00;101379.59;;;20.88;100.00
35806;BME280;21925;44.608;11.580;2023-05-22T06:03:27;101383.59;;;20.81;100.00
35806;BME280;21925;44.608;11.580;2023-05-22T06:06:12;101370.81;;;20.73;100.00
35806;BME280;21925;44.608;11.580;2023-05-22T06:09:03;101381.88;;;21.28;100.00
35806;BME280;21925;44.608;11.580;2023-05-22T06:11:35;101376.69;;;21.34;100.00
35806;BME280;21925;44.608;11.580;2023-05-22T06:14:01;101374.69;;;21.41;100.00
35806;BME280;21925;44.608;11.580;2023-05-22T06:16:28;101382.59;;;21.50;100.00
35806;BME280;21925;44.608;11.580;2023-05-22T06:18:53;101379.47;;;21.44;100.00
35806;BME280;21925;44.608;11.580;2023-05-22T06:21:22;101386.88;;;21.82;100.00
35806;BME280;21925;44.608;11.580;2023-05-22T06:23:49;101384.13;;;21.75;100.00
35806;BME280;21925;44.608;11.580;2023-05-22T06:26:16;101389.25;;;21.83;100.00
35806;BME280;21925;44.608;11.580;2023-05-22T06:28:44;101392.75;;;21.98;100.00
35806;BME280;21925;44.608;11.580;2023-05-22T06:31:10;101374.94;;;21.71;100.00
35806;BME280;21925;44.608;11.580;2023-05-22T06:33:38;101389.88;;;22.08;100.00
35806;BME280;21925;44.608;11.580;2023-05-22T06:36:05;101378.31;;;22.06;100.00
35806;BME280;21925;44.608;11.580;2023-05-22T06:38:33;101389.13;;;22.04;100.00
35806;BME280;21925;44.608;11.580;2023-05-22T06:40:59;101374.69;;;22.67;100.00
35806;BME280;21925;44.608;11.580;2023-05-22T06:43:25;101386.63;;;22.71;100.00
35806;BME280;21925;44.608;11.580;2023-05-22T06:46:00;101394.13;;;22.34;100.00
35806;BME280;21925;44.608;11.580;2023-05-22T06:48:49;101382.00;;;22.94;100.00
35806;BME280;21925;44.608;11.580;2023-05-22T06:51:24;101388.13;;;22.79;100.00
35806;BME280;21925;44.608;11.580;2023-05-22T06:53:53;101381.72;;;22.82;100.00
35806;BME280;21925;44.608;11.580;2023-05-22T06:56:23;101374.00;;;22.96;100.00
35806;BME280;21925;44.608;11.580;2023-05-22T06:58:59;101378.13;;;23.22;100.00
35806;BME280;21925;44.608;11.580;2023-05-22T07:01:42;101383.25;;;23.60;100.00
35806;BME280;21925;44.608;11.580;2023-05-22T07:04:12;101373.56;;;23.34;100.00
35806;BME280;21925;44.608;11.580;2023-05-22T07:06:46;101357.78;;;23.51;100.00
35806;BME280;21925;44.608;11.580;2023-05-22T07:09:13;101385.63;;;23.32;100.00
35806;BME280;21925;44.608;11.580;2023-05-22T07:11:40;101391.63;;;23.30;100.00
35806;BME280;21925;44.608;11.580;2023-05-22T07:14:10;101387.91;;;23.73;99.77
35806;BME280;21925;44.608;11.580;2023-05-22T07:16:38;101395.44;;;23.46;100.00
35806;BME280;21925;44.608;11.580;2023-05-22T07:19:04;101390.41;;;23.94;100.00
35806;BME280;21925;44.608;11.580;2023-05-22T07:21:31;101395.75;;;23.85;96.29
35806;BME280;21925;44.608;11.580;2023-05-22T07:23:57;101398.56;;;24.64;93.76
35806;BME280;21925;44.608;11.580;2023-05-22T07:26:22;101397.16;;;24.76;91.57
35806;BME280;21925;44.608;11.580;2023-05-22T07:28:59;101408.06;;;24.70;91.13
35806;BME280;21925;44.608;11.580;2023-05-22T07:31:25;101407.72;;;24.15;93.07
35806;BME280;21925;44.608;11.580;2023-05-22T07:33:53;101420.91;;;24.15;93.16
35806;BME280;21925;44.608;11.580;2023-05-22T07:36:18;101412.81;;;24.73;89.30
35806;BME280;21925;44.608;11.580;2023-05-22T07:38:45;101407.69;;;24.68;89.81
35806;BME280;21925;44.608;11.580;2023-05-22T07:41:11;101416.28;;;24.81;91.78
35806;BME280;21925;44.608;11.580;2023-05-22T07:43:36;101407.41;;;24.86;85.83
35806;BME280;21925;44.608;11.580;2023-05-22T07:46:03;101415.78;;;24.36;84.97
35806;BME280;21925;44.608;11.580;2023-05-22T07:48:35;101407.41;;;24.63;85.99
35806;BME280;21925;44.608;11.580;2023-05-22T07:51:01;101411.88;;;24.80;83.16
35806;BME280;21925;44.608;11.580;2023-05-22T07:53:28;101414.03;;;24.72;82.17
35806;BME280;21925;44.608;11.580;2023-05-22T07:55:56;101387.50;;;24.77;82.98
35806;BME280;21925;44.608;11.580;2023-05-22T07:58:22;101401.66;;;24.70;83.25
35806;BME280;21925;44.608;11.580;2023-05-22T08:00:48;101400.56;;;25.09;81.52
35806;BME280;21925;44.608;11.580;2023-05-22T08:03:14;101405.97;;;25.39;80.25
35806;BME280;21925;44.608;11.580;2023-05-22T08:05:40;101388.53;;;25.28;81.79
35806;BME280;21925;44.608;11.580;2023-05-22T08:08:05;101387.72;;;25.08;80.28
35806;BME280;21925;44.608;11.580;2023-05-22T08:10:31;101403.75;;;25.50;79.22
35806;BME280;21925;44.608;11.580;2023-05-22T08:12:57;101389.28;;;25.32;78.87
35806;BME280;21925;44.608;11.580;2023-05-22T08:15:26;101387.56;;;25.38;76.89
35806;BME280;21925;44.608;11.580;2023-05-22T08:17:52;101391.56;;;25.37;79.31
35806;BME280;21925;44.608;11.580;2023-05-22T08:20:18;101386.25;;;25.62;79.17
35806;BME280;21925;44.608;11.580;2023-05-22T08:22:43;101389.41;;;25.64;80.16
35806;BME280;21925;44.608;11.580;2023-05-22T08:25:09;101386.06;;;26.08;75.51
35806;BME280;21925;44.608;11.580;2023-05-22T08:27:34;101379.25;;;25.89;74.71
35806;BME280;21925;44.608;11.580;2023-05-22T08:30:01;101366.28;;;25.57;77.71
35806;BME280;21925;44.608;11.580;2023-05-22T08:32:28;101364.44;;;26.05;75.63
35806;BME280;21925;44.608;11.580;2023-05-22T08:34:54;101377.81;;;26.17;77.94
35806;BME280;21925;44.608;11.580;2023-05-22T08:37:19;101367.47;;;26.46;76.21
35806;BME280;21925;44.608;11.580;2023-05-22T08:39:45;101372.88;;;26.21;74.92
35806;BME280;21925;44.608;11.580;2023-05-22T08:42:11;101330.44;;;25.64;73.67
35806;BME280;21925;44.608;11.580;2023-05-22T08:44:36;101372.06;;;26.56;73.80
35806;BME280;21925;44.608;11.580;2023-05-22T08:47:03;101378.06;;;26.86;72.03
35806;BME280;21925;44.608;11.580;2023-05-22T08:49:34;101376.44;;;26.72;75.42
35806;BME280;21925;44.608;11.580;2023-05-22T08:52:06;101376.25;;;26.79;73.48
35806;BME280;21925;44.608;11.580;2023-05-22T08:54:35;101373.81;;;27.26;70.56
35806;BME280;21925;44.608;11.580;2023-05-22T08:57:01;101382.22;;;26.50;70.47
35806;BME280;21925;44.608;11.580;2023-05-22T08:59:27;101377.69;;;26.56;71.93
35806;BME280;21925;44.608;11.580;2023-05-22T09:01:54;101377.19;;;27.05;71.36
35806;BME280;21925;44.608;11.580;2023-05-22T09:04:20;101371.06;;;27.22;71.16
35806;BME280;21925;44.608;11.580;2023-05-22T09:06:48;101373.13;;;27.62;70.13
35806;BME280;21925;44.608;11.580;2023-05-22T09:09:14;101353.38;;;27.22;70.82
35806;BME280;21925;44.608;11.580;2023-05-22T09:11:40;101370.13;;;27.13;71.76
35806;BME280;21925;44.608;11.580;2023-05-22T09:14:09;101367.94;;;27.61;69.59
35806;BME280;21925;44.608;11.580;2023-05-22T09:16:45;101380.41;;;28.01;69.00
35806;BME280;21925;44.608;11.580;2023-05-22T09:19:12;101363.53;;;27.19;68.70
35806;BME280;21925;44.608;11.580;2023-05-22T09:21:39;101359.19;;;27.71;69.51
35806;BME280;21925;44.608;11.580;2023-05-22T09:24:07;101371.50;;;28.02;72.05
35806;BME280;21925;44.608;11.580;2023-05-22T09:26:34;101361.78;;;27.91;67.41
35806;BME280;21925;44.608;11.580;2023-05-22T09:29:01;101385.66;;;27.74;70.14
35806;BME280;21925;44.608;11.580;2023-05-22T09:31:30;101385.94;;;28.17;70.22
35806;BME280;21925;44.608;11.580;2023-05-22T09:33:56;101374.19;;;28.06;68.11
35806;BME280;21925;44.608;11.580;2023-05-22T09:36:31;101310.47;;;27.96;64.96
35806;BME280;21925;44.608;11.580;2023-05-22T09:39:01;101380.94;;;28.70;64.86
35806;BME280;21925;44.608;11.580;2023-05-22T09:41:27;101390.34;;;28.18;66.33
35806;BME280;21925;44.608;11.580;2023-05-22T09:43:54;101372.16;;;28.43;64.67
35806;BME280;21925;44.608;11.580;2023-05-22T09:46:20;101362.31;;;28.60;64.13
35806;BME280;21925;44.608;11.580;2023-05-22T09:48:53;101374.81;;;28.26;62.88
35806;BME280;21925;44.608;11.580;2023-05-22T09:51:22;101368.91;;;28.20;63.80
35806;BME280;21925;44.608;11.580;2023-05-22T09:54:02;101374.19;;;28.55;63.86
35806;BME280;21925;44.608;11.580;2023-05-22T09:56:30;101373.41;;;29.01;61.69
35806;BME280;21925;44.608;11.580;2023-05-22T09:58:57;101370.44;;;29.38;61.03
35806;BME280;21925;44.608;11.580;2023-05-22T10:01:24;101372.97;;;29.03;61.61
35806;BME280;21925;44.608;11.580;2023-05-22T10:03:51;101356.63;;;29.62;61.89
35806;BME280;21925;44.608;11.580;2023-05-22T10:06:20;101354.94;;;30.25;59.45
35806;BME280;21925;44.608;11.580;2023-05-22T10:09:00;101340.16;;;29.60;60.99
35806;BME280;21925;44.608;11.580;2023-05-22T10:11:28;101355.13;;;29.48;60.96
35806;BME280;21925;44.608;11.580;2023-05-22T10:13:55;101354.28;;;30.21;59.72
35806;BME280;21925;44.608;11.580;2023-05-22T10:16:24;101344.31;;;30.07;59.41
35806;BME280;21925;44.608;11.580;2023-05-22T10:18:52;101348.72;;;29.48;60.28
35806;BME280;21925;44.608;11.580;2023-05-22T10:21:18;101337.22;;;29.42;61.48
35806;BME280;21925;44.608;11.580;2023-05-22T10:23:45;101339.97;;;30.24;58.66
35806;BME280;21925;44.608;11.580;2023-05-22T10:26:12;101352.63;;;30.41;59.29
35806;BME280;21925;44.608;11.580;2023-05-22T10:28:41;101335.63;;;29.93;58.33
35806;BME280;21925;44.608;11.580;2023-05-22T10:34:27;101346.25;;;29.89;59.30
35806;BME280;21925;44.608;11.580;2023-05-22T10:37:09;101343.44;;;30.85;59.24
35806;BME280;21925;44.608;11.580;2023-05-22T10:40:04;101337.66;;;29.93;59.40
35806;BME280;21925;44.608;11.580;2023-05-22T10:42:38;101333.84;;;30.26;59.94
35806;BME280;21925;44.608;11.580;2023-05-22T10:45:07;101319.66;;;30.74;59.84
35806;BME280;21925;44.608;11.580;2023-05-22T10:47:35;101328.50;;;31.12;55.64
35806;BME280;21925;44.608;11.580;2023-05-22T10:50:10;101337.16;;;30.24;57.47
35806;BME280;21925;44.608;11.580;2023-05-22T10:52:39;101346.94;;;30.32;56.28
35806;BME280;21925;44.608;11.580;2023-05-22T10:55:09;101265.78;;;30.11;56.10
35806;BME280;21925;44.608;11.580;2023-05-22T10:57:37;101286.97;;;31.18;54.22
35806;BME280;21925;44.608;11.580;2023-05-22T11:00:20;101344.75;;;32.30;52.50
35806;BME280;21925;44.608;11.580;2023-05-22T11:03:03;101310.88;;;30.99;53.81
35806;BME280;21925;44.608;11.580;2023-05-22T11:05:38;101317.47;;;31.23;56.15
35806;BME280;21925;44.608;11.580;2023-05-22T11:08:10;101236.09;;;31.73;55.63
35806;BME280;21925;44.608;11.580;2023-05-22T11:10:53;101237.72;;;31.65;54.30
35806;BME280;21925;44.608;11.580;2023-05-22T11:13:29;101294.50;;;31.12;57.00
35806;BME280;21925;44.608;11.580;2023-05-22T11:16:07;101232.50;;;30.87;54.85
35806;BME280;21925;44.608;11.580;2023-05-22T11:18:45;101287.03;;;31.59;53.50
35806;BME280;21925;44.608;11.580;2023-05-22T11:21:30;101285.59;;;31.63;55.36
35806;BME280;21925;44.608;11.580;2023-05-22T11:23:59;101293.84;;;31.35;54.22
35806;BME280;21925;44.608;11.580;2023-05-22T11:26:25;101258.94;;;31.02;55.01
35806;BME280;21925;44.608;11.580;2023-05-22T11:28:51;101272.69;;;32.74;54.87
35806;BME280;21925;44.608;11.580;2023-05-22T11:31:23;101302.72;;;33.04;53.58
35806;BME280;21925;44.608;11.580;2023-05-22T11:33:54;101286.22;;;32.09;54.46
35806;BME280;21925;44.608;11.580;2023-05-22T11:36:35;101291.03;;;33.11;52.68
35806;BME280;21925;44.608;11.580;2023-05-22T11:39:02;101272.22;;;32.29;53.28
35806;BME280;21925;44.608;11.580;2023-05-22T11:41:37;101260.22;;;32.34;54.08
35806;BME280;21925;44.608;11.580;2023-05-22T11:44:06;101237.91;;;32.41;54.10
35806;BME280;21925;44.608;11.580;2023-05-22T11:46:37;101284.88;;;34.04;53.06
35806;BME280;21925;44.608;11.580;2023-05-22T11:49:08;101257.88;;;33.80;51.12
35806;BME280;21925;44.608;11.580;2023-05-22T11:51:38;101234.50;;;32.75;51.37
35806;BME280;21925;44.608;11.580;2023-05-22T11:54:07;101220.38;;;33.81;50.88
35806;BME280;21925;44.608;11.580;2023-05-22T11:56:34;101243.97;;;33.67;49.61
35806;BME280;21925;44.608;11.580;2023-05-22T11:59:02;101226.50;;;33.02;50.16
35806;BME280;21925;44.608;11.580;2023-05-22T12:01:33;101278.88;;;33.82;49.68
35806;BME280;21925;44.608;11.580;2023-05-22T12:04:03;101236.53;;;33.12;48.69
35806;BME280;21925;44.608;11.580;2023-05-22T12:06:35;101197.78;;;32.86;50.80
35806;BME280;21925;44.608;11.580;2023-05-22T12:09:03;101270.38;;;34.36;48.67
35806;BME280;21925;44.608;11.580;2023-05-22T12:11:43;101274.00;;;34.37;50.13
35806;BME280;21925;44.608;11.580;2023-05-22T12:14:16;101211.56;;;33.79;48.03
35806;BME280;21925;44.608;11.580;2023-05-22T12:16:50;101222.16;;;33.79;46.47
35806;BME280;21925;44.608;11.580;2023-05-22T12:19:20;101270.78;;;34.89;50.86
35806;BME280;21925;44.608;11.580;2023-05-22T12:21:51;101236.09;;;34.51;46.38
35806;BME280;21925;44.608;11.580;2023-05-22T12:24:17;101268.53;;;33.99;48.15
35806;BME280;21925;44.608;11.580;2023-05-22T12:26:52;101214.66;;;33.32;47.59
35806;BME280;21925;44.608;11.580;2023-05-22T12:29:22;101264.63;;;33.82;50.18
35806;BME280;21925;44.608;11.580;2023-05-22T12:35:05;101175.47;;;33.08;47.17
35806;BME280;21925;44.608;11.580;2023-05-22T12:37:47;101261.09;;;33.87;47.86
35806;BME280;21925;44.608;11.580;2023-05-22T12:40:14;101222.28;;;33.55;49.35
35806;BME280;21925;44.608;11.580;2023-05-22T12:42:53;101243.16;;;33.52;47.81
35806;BME280;21925;44.608;11.580;2023-05-22T12:45:23;101199.22;;;33.53;48.58
35806;BME280;21925;44.608;11.580;2023-05-22T12:47:50;101215.22;;;33.36;47.95
35806;BME280;21925;44.608;11.580;2023-05-22T12:50:21;101227.50;;;33.14;46.79
35806;BME280;21925;44.608;11.580;2023-05-22T12:53:04;101179.41;;;33.73;49.90
35806;BME280;21925;44.608;11.580;2023-05-22T12:55:34;101247.00;;;33.49;47.24
35806;BME280;21925;44.608;11.580;2023-05-22T12:58:10;101174.34;;;33.48;47.85
35806;BME280;21925;44.608;11.580;2023-05-22T13:00:36;101208.53;;;34.57;49.06
35806;BME280;21925;44.608;11.580;2023-05-22T13:03:16;101220.25;;;35.40;47.99
35806;BME280;21925;44.608;11.580;2023-05-22T13:05:45;101198.69;;;35.65;47.29
35806;BME280;21925;44.608;11.580;2023-05-22T13:08:37;101252.06;;;35.89;45.92
35806;BME280;21925;44.608;11.580;2023-05-22T13:11:07;101199.19;;;35.99;46.52